Latest Weather Observations for Batchelor

IDD60801

Issued at 2:05 pm CST Tuesday 2 September 2014 (issued every 30 minutes, with the page automatically refreshed every 10 minutes)

About weather observations | Map of weather stations | Latest weather observations for NT | Other Formats
Station Details ID: 014272 Name: BATCHELOR AIRPORT Lat: -13.05 Lon: 131.03 Height: 104.0 m
Data from the previous 72 hours. | See also: Recent months at Batchelor
Date/Time
CST
Temp
°C
App
Temp
°C
Dew
Point
Rel
Hum
%
Delta-T
°C
Wind Press
QNH
hPa
Press
MSL
hPa
Rain
since 9 am
mm
Dir
 
Spd
km/h
Gust
km/h
Spd
kts
Gust
kts
02/02:00pm 33.9 29.1 2.7 14 16.1 E 17 26 9 14 1012.4 1011.8 0.0
02/01:30pm 34.1 30.6 5.6 17 15.4 ESE 13 28 7 15 1013.0 1012.3 0.0
02/01:00pm 33.4 28.5 5.0 17 15.1 ESE 20 28 11 15 1013.6 1012.9 0.0
02/12:30pm 32.6 27.3 6.7 20 14.1 ESE 24 37 13 20 1014.1 1013.4 0.0
02/12:00pm 30.9 29.0 9.2 26 12.2 ENE 9 22 5 12 1014.5 1013.8 0.0
02/11:30am 29.5 29.0 10.6 31 10.8 E 4 7 2 4 1015.2 1014.5 0.0
02/11:00am 28.9 28.2 11.9 35 9.9 ESE 7 13 4 7 1015.6 1014.9 0.0
02/10:30am 28.4 27.7 13.1 39 9.1 E 9 17 5 9 1016.0 1015.3 0.0
02/10:00am 27.2 27.5 14.6 46 7.6 ENE 6 11 3 6 1016.1 1015.4 0.0
02/09:30am 26.3 26.7 15.4 51 6.6 N 7 11 4 6 1016.1 1015.4 0.0
02/09:00am 25.1 26.0 16.0 57 5.6 N 6 13 3 7 1016.0 1015.3 0.2
02/08:30am 22.8 25.0 18.3 76 2.8 ENE 4 4 2 2 1016.0 1015.3 0.2
02/08:00am 20.3 23.2 19.0 92 0.8 ENE 2 4 1 2 1015.7 1015.0 0.2
02/07:30am 17.4 19.0 16.8 96 0.4 ENE 4 4 2 2 1015.4 1014.7 0.2
02/07:00am 15.9 17.5 14.8 93 0.6 CALM 0 0 0 0 1015.1 1014.4 0.2
02/06:30am 17.2 19.1 16.6 96 0.4 ENE 2 4 1 2 1014.7 1014.0 0.2
02/06:00am 17.5 19.5 16.9 96 0.4 ENE 2 4 1 2 1014.7 1014.0 0.2
02/05:30am 16.3 17.2 15.0 92 0.8 ENE 4 6 2 3 1014.6 1013.9 0.2
02/05:00am 17.1 18.6 15.6 91 0.9 ENE 2 4 1 2 1014.6 1013.9 0.2
02/04:30am 18.0 19.4 16.5 91 0.9 ENE 4 6 2 3 1014.7 1014.0 0.2
02/04:00am 18.5 20.2 17.2 92 0.8 NE 4 6 2 3 1014.6 1013.9 0.2
02/03:30am 19.2 20.9 18.0 93 0.7 N 6 9 3 5 1014.3 1013.6 0.2
02/03:00am 19.1 21.1 17.8 92 0.8 N 4 6 2 3 1014.5 1013.8 0.2
02/02:30am 18.6 20.8 17.4 93 0.7 SSW 2 11 1 6 1014.3 1013.6 0.2
02/02:00am 18.9 21.2 17.6 92 0.8 SW 2 4 1 2 1014.3 1013.6 0.2
02/01:30am 18.9 20.4 16.7 87 1.3 SW 4 6 2 3 1014.3 1013.6 0.2
02/01:00am 19.3 21.4 17.3 88 1.2 WSW 2 6 1 3 1014.5 1013.8 0.2
02/12:30am 20.6 22.4 17.4 82 2.0 WSW 4 6 2 3 1014.7 1014.0 0.2
02/12:00am 21.1 22.7 17.9 82 2.0 WSW 6 7 3 4 1014.6 1013.9 0.2
 
Date/Time
CST
Temp
°C
App
Temp
°C
Dew
Point
Rel
Hum
%
Delta-T
°C
Wind Press
QNH
hPa
Press
MSL
hPa
Rain
since 9 am
mm
Dir
 
Spd
km/h
Gust
km/h
Spd
kts
Gust
kts
01/11:30pm 21.4 22.8 17.4 78 2.5 W 6 7 3 4 1014.6 1013.9 0.2
01/11:00pm 21.7 23.6 16.6 73 3.1 W 2 6 1 3 1014.7 1014.0 0.2
01/10:30pm 22.6 23.7 16.6 69 3.7 W 6 9 3 5 1014.5 1013.8 0.2
01/10:00pm 23.4 24.3 16.7 66 4.1 W 7 13 4 7 1014.2 1013.5 0.2
01/09:30pm 23.8 24.4 15.8 61 4.9 WNW 7 11 4 6 1014.0 1013.3 0.2
01/09:00pm 24.5 25.1 15.7 58 5.3 WNW 7 13 4 7 1013.6 1012.9 0.2
01/08:30pm 25.1 25.7 15.7 56 5.7 W 7 11 4 6 1013.2 1012.5 0.2
01/08:00pm 25.9 25.8 15.9 54 6.1 W 11 17 6 9 1012.8 1012.1 0.2
01/07:30pm 26.9 26.7 15.6 50 6.9 W 11 19 6 10 1012.1 1011.5 0.2
01/07:00pm 27.0 26.4 7.5 29 10.5 CALM 0 0 0 0 1011.6 1011.0 0.2
01/06:30pm 30.2 28.3 6.8 23 12.6 ESE 6 11 3 6 1011.3 1010.7 0.2
01/06:00pm 32.3 29.6 5.7 19 14.3 ESE 9 17 5 9 1011.2 1010.5 0.2
01/05:30pm 32.9 30.3 6.2 19 14.5 SE 9 19 5 10 1010.8 1010.1 0.2
01/05:00pm 33.0 31.0 6.3 19 14.5 S 6 11 3 6 1010.7 1010.0 0.2
01/04:30pm 33.0 30.4 6.3 19 14.5 S 9 19 5 10 1010.7 1010.0 0.2
01/04:00pm 32.8 30.2 6.2 19 14.4 SSE 9 17 5 9 1010.8 1010.1 0.2
01/03:30pm 33.5 30.1 5.9 18 14.9 E 13 24 7 13 1011.0 1010.3 0.2
01/03:00pm 32.9 30.1 7.0 20 14.2 E 11 24 6 13 1011.4 1010.8 0.2
01/02:30pm 33.0 31.0 8.5 22 13.8 SE 9 19 5 10 1011.7 1011.1 0.2
01/02:00pm 32.3 29.0 7.9 22 13.5 ESE 15 24 8 13 1012.3 1011.7 0.2
01/01:30pm 32.2 30.0 7.8 22 13.5 ESE 9 20 5 11 1012.9 1012.2 0.2
01/01:00pm 31.3 27.3 8.9 25 12.6 E 20 32 11 17 1013.5 1012.8 0.2
01/12:30pm 31.8 29.2 9.3 25 12.7 E 13 24 7 13 1014.0 1013.3 0.2
01/12:00pm 30.4 28.6 10.9 30 11.2 ESE 11 24 6 13 1014.5 1013.8 0.2
01/11:30am 29.7 29.5 13.5 37 9.7 ENE 7 13 4 7 1015.1 1014.4 0.2
01/11:00am 28.4 28.5 13.9 41 8.7 N 6 13 3 7 1015.5 1014.8 0.2
01/10:30am 27.5 27.9 15.2 47 7.5 NNE 7 13 4 7 1015.8 1015.1 0.2
01/10:00am 26.8 27.6 16.4 53 6.4 NE 7 13 4 7 1016.1 1015.4 0.0
01/09:30am 25.9 27.0 17.0 58 5.5 N 7 15 4 8 1016.1 1015.4 0.0
01/09:00am 25.0 26.1 17.0 61 5.0 N 7 11 4 6 1016.1 1015.6 0.0
01/08:30am 23.6 24.9 17.1 67 4.0 N 6 7 3 4 1015.8 1015.2 0.0
01/08:00am 19.5 21.9 18.0 91 0.9 E 2 4 1 2 1015.9 1015.3 0.0
01/07:30am 16.8 18.8 16.0 95 0.5 CALM 0 0 0 0 1015.9 1015.3 0.0
01/07:00am 15.9 17.5 14.9 94 0.6 CALM 0 0 0 0 1015.4 1014.8 0.0
01/06:30am 16.6 18.6 16.0 96 0.4 CALM 0 0 0 0 1015.1 1014.5 0.0
01/06:00am 16.6 18.4 15.6 94 0.6 CALM 0 0 0 0 1014.8 1014.2 0.0
01/05:30am 16.3 17.9 15.0 92 0.8 CALM 0 0 0 0 1014.6 1014.0 0.0
01/05:00am 17.1 19.0 15.8 92 0.8 CALM 0 2 0 1 1014.5 1013.9 0.0
01/04:30am 18.0 19.2 17.4 96 0.4 NNE 7 11 4 6 1014.5 1013.9 0.0
01/04:00am 17.3 18.7 15.5 89 1.1 N 2 4 1 2 1013.8 1013.2 0.0
01/03:30am 18.1 19.6 16.6 91 0.9 NNW 4 11 2 6 1013.6 1013.0 0.0
01/03:00am 18.7 20.0 17.0 90 1.0 N 6 7 3 4 1013.6 1013.0 0.0
01/02:30am 19.0 20.5 17.7 92 0.8 N 6 9 3 5 1013.5 1012.9 0.0
01/02:00am 19.4 21.8 18.7 96 0.4 W 4 15 2 8 1013.4 1012.8 0.0
01/01:30am 18.5 20.9 17.0 91 0.9 CALM 0 0 0 0 1013.1 1012.5 0.0
01/01:00am 19.3 21.2 16.7 85 1.6 W 2 4 1 2 1013.2 1012.6 0.0
01/12:30am 20.1 21.6 17.7 86 1.5 W 6 9 3 5 1013.1 1012.5 0.0
01/12:00am 20.4 21.7 17.0 81 2.1 W 6 7 3 4 1013.1 1012.5 0.0
 
Date/Time
CST
Temp
°C
App
Temp
°C
Dew
Point
Rel
Hum
%
Delta-T
°C
Wind Press
QNH
hPa
Press
MSL
hPa
Rain
since 9 am
mm
Dir
 
Spd
km/h
Gust
km/h
Spd
kts
Gust
kts
31/11:30pm 20.4 21.4 16.4 78 2.4 W 6 7 3 4 1013.1 1012.5 0.0
31/11:00pm 21.0 21.8 16.4 75 2.8 WNW 7 11 4 6 1013.0 1012.4 0.0
31/10:30pm 20.8 21.2 14.7 68 3.6 WNW 6 7 3 4 1013.0 1012.4 0.0
31/10:00pm 21.4 21.7 14.6 65 4.0 WNW 6 7 3 4 1013.1 1012.5 0.0
31/09:30pm 21.9 22.0 14.0 61 4.6 NW 6 6 3 3 1012.9 1012.3 0.0
31/09:00pm 23.3 23.2 14.0 56 5.5 NW 7 9 4 5 1012.5 1012.0 0.0
31/08:30pm 24.6 24.6 14.1 52 6.2 W 7 11 4 6 1012.2 1011.7 0.0
31/08:00pm 25.2 24.5 12.1 44 7.5 W 7 11 4 6 1011.9 1011.4 0.0
31/07:30pm 23.7 22.2 3.1 26 10.0 CALM 0 0 0 0 1011.4 1010.9 0.0
31/07:00pm 25.6 24.0 2.3 22 11.3 CALM 0 0 0 0 1011.0 1010.5 0.0
31/06:30pm 28.7 26.0 0.4 16 13.6 SE 4 6 2 3 1010.6 1010.1 0.0
31/06:00pm 31.3 27.4 -1.5 12 15.5 ESE 9 13 5 7 1010.4 1009.9 0.0
31/05:30pm 32.0 27.6 -2.1 11 16.0 SE 11 15 6 8 1010.2 1009.7 0.0
31/05:00pm 32.6 29.1 -1.7 11 16.3 SE 7 15 4 8 1010.2 1009.7 0.0
31/04:30pm 32.6 28.7 -1.7 11 16.3 ESE 9 20 5 11 1010.1 1009.6 0.0
31/04:00pm 33.0 28.7 -1.4 11 16.5 SE 11 26 6 14 1010.2 1009.7 0.0
31/03:30pm 33.0 28.9 -0.2 12 16.2 SE 11 22 6 12 1010.3 1009.8 0.0
31/03:00pm 32.2 27.3 -0.8 12 15.9 SE 15 30 8 16 1010.6 1010.1 0.0
31/02:30pm 32.6 27.1 0.6 13 15.8 SE 19 26 10 14 1011.0 1010.5 0.0
31/02:00pm 32.5 27.5 1.6 14 15.5 E 17 26 9 14 1011.4 1010.9 0.0
31/01:30pm 32.2 27.6 1.3 14 15.4 ESE 15 26 8 14 1012.0 1011.5 0.0
31/01:00pm 31.6 26.7 1.8 15 14.9 ESE 17 30 9 16 1012.5 1012.0 0.0
31/12:30pm 30.6 26.1 4.4 19 13.6 ESE 17 26 9 14 1013.2 1012.6 0.0
31/12:00pm 29.5 26.7 8.5 27 11.6 ESE 13 20 7 11 1014.0 1013.4 0.0
31/11:30am 29.0 27.3 9.7 30 10.8 ENE 9 17 5 9 1014.7 1014.1 0.0
31/11:00am 28.2 26.0 9.5 31 10.4 ENE 11 17 6 9 1015.3 1014.7 0.0
31/10:30am 26.9 25.1 11.0 37 9.0 E 11 17 6 9 1015.6 1015.0 0.0
31/10:00am 26.5 25.9 13.6 45 7.6 E 9 20 5 11 1015.7 1015.1 0.0
31/09:30am 25.6 26.3 16.2 56 5.8 NE 7 11 4 6 1015.7 1015.1 0.0
31/09:00am 23.9 25.1 16.9 65 4.3 N 6 7 3 4 1015.5 1014.9 0.0
31/08:30am 22.1 24.6 17.2 74 3.0 CALM 0 0 0 0 1015.3 1014.7 0.0
31/08:00am 18.7 21.0 16.7 88 1.2 CALM 0 0 0 0 1015.1 1014.5 0.0
31/07:30am 15.8 17.4 14.8 94 0.6 CALM 0 0 0 0 1014.8 1014.2 0.0
31/07:00am 14.9 16.1 13.8 93 0.6 CALM 0 0 0 0 1014.4 1013.8 0.0
31/06:30am 14.6 15.6 13.1 91 0.8 CALM 0 2 0 1 1014.0 1013.4 0.0
31/06:00am 15.5 16.4 14.0 91 0.9 N 2 2 1 1 1013.7 1013.1 0.0
31/05:30am 15.7 16.1 13.7 88 1.1 N 4 4 2 2 1013.4 1012.8 0.0
31/05:00am 17.8 18.4 15.4 86 1.4 N 6 7 3 4 1013.2 1012.6 0.0
31/04:30am 16.8 17.4 14.3 85 1.4 NNE 4 6 2 3 1013.3 1012.7 0.0
31/04:00am 17.1 17.6 15.1 88 1.2 NE 6 6 3 3 1013.4 1012.8 0.0
31/03:30am 17.3 17.6 16.0 92 0.8 ENE 9 13 5 7 1013.5 1012.9 0.0
31/03:00am 15.3 16.0 13.5 89 1.0 NNE 2 6 1 3 1013.2 1012.6 0.0
31/02:30am 16.5 17.6 14.7 89 1.0 NNE 2 6 1 3 1013.2 1012.6 0.0
31/02:00am 17.6 18.7 14.7 83 1.7 NNE 2 4 1 2 1013.4 1012.8 0.0
31/01:30am 17.2 17.8 14.3 83 1.7 NNE 4 7 2 4 1013.6 1013.0 0.0
31/01:00am 16.2 17.5 14.2 88 1.1 CALM 0 0 0 0 1013.3 1012.7 0.0
31/12:30am 16.3 17.2 14.0 86 1.3 W 2 4 1 2 1013.3 1012.7 0.0
31/12:00am 17.9 18.6 14.6 81 1.9 W 4 6 2 3 1013.4 1012.8 0.0
 
Date/Time
CST
Temp
°C
App
Temp
°C
Dew
Point
Rel
Hum
%
Delta-T
°C
Wind Press
QNH
hPa
Press
MSL
hPa
Rain
since 9 am
mm
Dir
 
Spd
km/h
Gust
km/h
Spd
kts
Gust
kts
30/11:30pm 18.7 19.9 15.0 79 2.2 W 2 4 1 2 1013.5 1012.9 0.0
30/11:00pm 20.6 21.6 15.4 72 3.1 W 4 6 2 3 1013.5 1012.9 0.0
30/10:30pm 21.8 22.6 15.9 69 3.6 W 6 7 3 4 1013.4 1012.8 0.0
30/10:00pm 21.5 22.7 15.8 70 3.4 WNW 4 7 2 4 1013.6 1013.0 0.0
30/09:30pm 21.9 22.8 15.0 65 4.1 NW 4 4 2 2 1013.7 1013.1 0.0
30/09:00pm 22.9 23.2 14.5 59 5.0 NW 6 7 3 4 1013.5 1012.9 0.0
30/08:30pm 24.1 22.3 13.3 51 6.3 NW 15 24 8 13 1013.0 1012.4 0.0
30/08:00pm 21.2 19.6 2.5 29 8.8 CALM 0 0 0 0 1012.3 1011.8 0.0
30/07:30pm 23.6 21.8 1.3 23 10.5 CALM 0 0 0 0 1012.0 1011.5 0.0
30/07:00pm 24.9 22.2 0.4 20 11.4 SE 4 6 2 3 1011.8 1011.3 0.0
30/06:30pm 29.0 25.6 -2.2 13 14.3 ESE 6 7 3 4 1011.5 1011.0 0.0
30/06:00pm 31.2 27.4 -4.0 10 15.9 SE 7 11 4 6 1011.2 1010.7 0.0
30/05:30pm 31.9 28.1 -3.5 10 16.2 SSE 7 15 4 8 1010.9 1010.4 0.0
30/05:00pm 32.5 27.9 -4.4 9 16.7 SE 11 15 6 8 1010.8 1010.3 0.0
30/04:30pm 32.4 28.3 -3.1 10 16.4 E 9 17 5 9 1010.6 1010.1 0.0
30/04:00pm 33.0 28.2 -2.6 10 16.7 E 13 24 7 13 1010.6 1010.1 0.0
30/03:30pm 33.2 28.0 -2.5 10 16.8 ESE 15 26 8 14 1010.8 1010.3 0.0
30/03:00pm 32.6 28.3 -1.7 11 16.3 ESE 11 22 6 12 1011.1 1010.6 0.0
30/02:30pm 32.3 27.7 -0.7 12 15.9 E 13 20 7 11 1011.7 1011.2 0.0

Other Formats:

Comma delimited format used in spreadsheet applications
http://www.bom.gov.au/fwo/IDD60801/IDD60801.94125.axf

JavaScript Object Notation format (JSON) in row-major order
http://www.bom.gov.au/fwo/IDD60801/IDD60801.94125.json